Time;durP1;ratioP1;P1;durP2;ratioP2;P2;SDS_P1;SDS_P2;PMS_P1;PMS_P2;Temp;Humidity;BMP_temperature;BMP_pressure;BME280_temperature;BME280_humidity;BME280_pressure;Samples;Min_cycle;Max_cycle;Signal;HPM_P1;HPM_P2
2022/04/08 00:02:02;;;;;;;11.20;1.98;;;9.10;99.90;;;7.08;96.96;98568.38;4978262;28;20061;-78
2022/04/08 00:04:30;;;;;;;9.18;1.67;;;9.10;99.90;;;7.03;96.82;98569.84;4972098;28;20102;-77
2022/04/08 00:06:59;;;;;;;8.10;1.77;;;9.00;99.90;;;7.02;97.17;98578.16;4983398;28;20045;-78
2022/04/08 00:09:26;;;;;;;8.27;1.70;;;9.10;99.90;;;7.03;98.46;98567.13;4990603;28;20517;-78
2022/04/08 00:11:55;;;;;;;12.00;2.30;;;9.00;99.90;;;6.99;98.48;98574.03;4980128;28;20038;-77
2022/04/08 00:14:22;;;;;;;11.25;2.53;;;9.00;99.90;;;6.94;98.32;98567.56;4972013;28;20061;-78
2022/04/08 00:16:49;;;;;;;7.75;2.25;;;9.00;99.90;;;6.92;98.51;98580.47;4980591;28;20517;-78
2022/04/08 00:19:17;;;;;;;10.90;2.05;;;9.00;99.90;;;6.92;98.57;98575.88;4990474;28;20129;-78
2022/04/08 00:21:44;;;;;;;11.00;2.17;;;9.00;99.90;;;6.95;98.79;98586.31;4981588;28;20057;-78
2022/04/08 00:24:13;;;;;;;9.77;2.53;;;9.00;99.90;;;6.93;99.37;98582.97;4984396;28;20050;-78
2022/04/08 00:26:41;;;;;;;7.40;2.25;;;9.10;99.90;;;6.92;100.00;98591.28;4983506;28;20415;-78
2022/04/08 00:29:09;;;;;;;16.35;2.85;;;9.10;99.90;;;6.95;99.47;98607.06;4969551;28;20042;-78
2022/04/08 00:31:36;;;;;;;11.35;2.05;;;9.10;99.90;;;6.90;99.98;98602.31;4969461;28;20054;-78
2022/04/08 00:34:03;;;;;;;9.27;2.38;;;9.00;99.90;;;6.94;100.00;98605.44;4988059;28;20042;-78
2022/04/08 00:36:30;;;;;;;13.90;2.58;;;9.00;99.90;;;6.89;100.00;98614.16;4986037;28;20195;-78
2022/04/08 00:38:58;;;;;;;13.55;2.20;;;9.00;99.90;;;6.84;100.00;98619.38;4976245;28;20100;-78
2022/04/08 00:41:26;;;;;;;12.70;2.67;;;8.90;99.90;;;6.77;100.00;98632.03;4986374;28;20050;-78
2022/04/08 00:43:54;;;;;;;10.23;2.95;;;8.90;99.90;;;6.67;100.00;98639.72;4971477;28;20093;-77
2022/04/08 00:46:21;;;;;;;11.63;2.80;;;8.90;99.90;;;6.62;100.00;98638.47;4975315;28;20050;-77
2022/04/08 00:48:48;;;;;;;14.73;2.45;;;8.90;99.90;;;6.54;100.00;98645.94;4990879;28;20146;-78
2022/04/08 00:51:16;;;;;;;10.88;2.80;;;8.90;99.90;;;6.54;100.00;98654.88;4985113;28;20133;-78
2022/04/08 00:53:46;;;;;;;11.27;3.50;;;8.90;99.90;;;6.61;100.00;98661.13;4971187;28;20507;-78
2022/04/08 00:56:14;;;;;;;9.68;2.83;;;8.80;99.90;;;6.59;100.00;98662.38;4975273;28;20153;-78
2022/04/08 00:58:43;;;;;;;8.60;2.70;;;8.80;99.90;;;6.55;100.00;98664.66;4990726;28;20129;-78
2022/04/08 01:01:11;;;;;;;8.70;2.97;;;8.80;99.90;;;6.47;100.00;98670.22;4984578;28;20054;-78
2022/04/08 01:03:38;;;;;;;10.35;2.65;;;8.80;99.90;;;6.40;100.00;98670.22;4971862;28;20496;-78
2022/04/08 01:06:05;;;;;;;8.07;2.50;;;8.80;99.90;;;6.46;100.00;98674.81;4972970;28;20458;-77
2022/04/08 01:08:35;;;;;;;15.43;2.58;;;8.80;99.90;;;6.42;100.00;98672.72;4989108;28;20096;-78
2022/04/08 01:11:03;;;;;;;9.15;2.50;;;8.80;99.90;;;6.35;100.00;98679.97;4988022;28;20054;-78
2022/04/08 01:13:31;;;;;;;11.63;3.42;;;8.80;99.90;;;6.32;100.00;98680.38;4985828;28;20511;-78
2022/04/08 01:15:59;;;;;;;9.50;2.42;;;8.80;99.90;;;6.24;100.00;98687.63;4978960;28;20042;-78
2022/04/08 01:18:27;;;;;;;10.93;2.63;;;8.70;99.90;;;6.33;100.00;98695.56;4990374;28;20126;-77
2022/04/08 01:20:54;;;;;;;11.05;2.88;;;8.80;99.90;;;6.33;100.00;98698.25;4989584;28;20061;-78
2022/04/08 01:23:21;;;;;;;10.90;2.50;;;8.80;99.90;;;6.33;100.00;98701.78;4989210;28;20050;-78
2022/04/08 01:25:51;;;;;;;10.50;3.10;;;8.80;99.90;;;6.26;100.00;98709.03;4990279;28;20157;-78
2022/04/08 01:28:18;;;;;;;12.55;2.40;;;8.70;99.90;;;6.24;100.00;98711.94;4971444;28;20046;-78
2022/04/08 01:30:45;;;;;;;14.70;3.33;;;8.70;99.90;;;6.21;100.00;98720.44;4970049;28;20042;-77
2022/04/08 01:35:40;;;;;;;11.73;2.70;;;8.70;99.90;;;6.29;100.00;98715.91;4987549;28;19929;-87
2022/04/08 01:38:07;;;;;;;10.02;2.45;;;8.70;99.90;;;6.28;100.00;98727.75;4988198;28;20057;-88
2022/04/08 01:40:34;;;;;;;11.13;3.17;;;8.70;99.90;;;6.34;100.00;98737.72;4994102;28;20582;-88
2022/04/08 01:43:03;;;;;;;14.00;2.63;;;8.60;99.90;;;6.28;100.00;98735.84;4999749;28;20038;-89
2022/04/08 01:45:30;;;;;;;13.82;3.03;;;8.60;99.90;;;6.30;100.00;98736.47;4988014;28;20038;-89
2022/04/08 01:47:57;;;;;;;12.95;3.10;;;8.60;99.90;;;6.32;100.00;98743.38;4970316;28;20102;-88
2022/04/08 01:50:25;;;;;;;10.98;2.90;;;8.60;99.90;;;6.35;100.00;98744.81;4967778;28;20066;-89
2022/04/08 01:52:52;;;;;;;17.90;2.85;;;8.50;99.90;;;6.33;100.00;98749.59;4965705;28;20141;-87
2022/04/08 01:55:19;;;;;;;9.45;2.47;;;8.50;99.90;;;6.26;100.00;98752.25;4971269;28;20054;-89
2022/04/08 01:57:46;;;;;;;17.00;3.42;;;8.50;99.90;;;6.19;100.00;98733.31;4970035;28;20122;-89
2022/04/08 02:00:16;;;;;;;10.98;2.60;;;8.50;99.90;;;6.09;100.00;98743.63;4969240;28;20047;-87
2022/04/08 02:02:44;;;;;;;11.10;2.83;;;8.50;99.90;;;6.07;100.00;98756.50;4969897;28;20774;-89
2022/04/08 02:05:11;;;;;;;16.52;3.38;;;8.50;99.90;;;6.01;100.00;98751.91;4969998;28;20061;-89
2022/04/08 02:07:38;;;;;;;15.95;3.10;;;8.50;99.90;;;6.01;100.00;98763.53;4969932;28;20043;-90
2022/04/08 02:10:07;;;;;;;18.02;3.10;;;8.50;99.90;;;6.06;100.00;98766.47;4982799;28;20503;-88
2022/04/08 02:12:34;;;;;;;13.98;2.90;;;8.50;99.90;;;6.06;100.00;98771.88;4971503;28;20878;-88
2022/04/08 02:15:01;;;;;;;14.70;3.17;;;8.40;99.90;;;6.04;100.00;98765.84;4969954;28;20042;-88
2022/04/08 02:17:31;;;;;;;13.80;2.83;;;8.40;99.90;;;5.92;100.00;98766.56;4969758;28;20186;-88
2022/04/08 02:19:58;;;;;;;12.23;3.20;;;8.40;99.90;;;5.92;100.00;98780.06;4969417;28;20058;-89
2022/04/08 02:22:29;;;;;;;12.93;3.67;;;8.40;99.90;;;5.98;100.00;98782.03;4969810;28;20495;-89
2022/04/08 02:24:57;;;;;;;13.57;3.65;;;8.40;99.90;;;5.94;100.00;98786.09;4970129;28;20050;-89
2022/04/08 02:27:26;;;;;;;15.85;3.65;;;8.40;99.90;;;5.91;100.00;98787.34;4975761;28;20495;-88
2022/04/08 02:29:53;;;;;;;13.75;3.63;;;8.40;99.90;;;5.93;100.00;98797.94;4988721;28;20578;-89
2022/04/08 02:32:21;;;;;;;15.75;4.13;;;8.40;99.90;;;5.94;100.00;98795.06;4974973;28;20587;-87
2022/04/08 02:34:50;;;;;;;13.98;3.85;;;8.40;99.90;;;5.94;100.00;98810.41;4969735;28;20077;-88
2022/04/08 02:37:18;;;;;;;11.30;3.30;;;8.40;99.90;;;5.98;100.00;98811.72;4968121;28;20051;-89
2022/04/08 02:39:45;;;;;;;11.75;3.65;;;8.40;99.90;;;6.00;100.00;98809.66;4977579;28;20117;-89
2022/04/08 02:42:12;;;;;;;15.57;3.17;;;8.40;99.90;;;5.96;100.00;98808.34;4976765;28;20415;-89
2022/04/08 02:44:39;;;;;;;13.40;3.05;;;8.40;99.90;;;5.93;100.00;98814.13;4969732;28;20042;-88
2022/04/08 02:47:07;;;;;;;16.27;3.00;;;8.40;99.90;;;5.98;100.00;98814.44;4969529;28;20053;-89
2022/04/08 02:49:34;;;;;;;13.38;3.50;;;8.40;99.90;;;6.06;100.00;98820.50;4969640;28;20122;-88
2022/04/08 02:52:03;;;;;;;12.80;2.70;;;8.40;99.90;;;5.95;100.00;98820.19;4970590;28;20078;-88
2022/04/08 02:54:30;;;;;;;12.70;3.13;;;8.50;99.90;;;5.98;100.00;98822.53;4973119;28;20046;-88
2022/04/08 02:56:57;;;;;;;15.10;3.00;;;8.40;99.90;;;5.92;100.00;98817.84;4973297;28;20074;-88
2022/04/08 02:59:24;;;;;;;11.55;3.13;;;8.40;99.90;;;5.90;100.00;98830.72;4973136;28;20446;-87
2022/04/08 03:01:52;;;;;;;14.02;2.53;;;8.40;99.90;;;5.88;100.00;98820.97;4972200;28;20402;-88
2022/04/08 03:04:19;;;;;;;12.98;2.78;;;8.40;99.90;;;5.93;100.00;98830.34;4972747;28;20051;-88
2022/04/08 03:06:46;;;;;;;14.43;2.85;;;8.40;99.90;;;5.91;100.00;98824.31;4972880;28;20100;-88
2022/04/08 03:09:15;;;;;;;11.60;3.55;;;8.40;99.90;;;5.91;100.00;98821.59;4972489;28;20118;-89
2022/04/08 03:11:42;;;;;;;12.90;3.17;;;8.30;99.90;;;5.93;100.00;98831.16;4971939;28;20039;-89
2022/04/08 03:14:10;;;;;;;15.15;2.97;;;8.30;99.90;;;5.87;100.00;98829.25;4972675;28;20482;-88
2022/04/08 03:16:39;;;;;;;13.43;2.50;;;8.30;99.90;;;5.86;100.00;98831.13;4972334;28;20488;-88
2022/04/08 03:19:06;;;;;;;18.08;3.83;;;8.30;99.90;;;5.83;100.00;98834.22;4972588;28;20039;-88
2022/04/08 03:21:34;;;;;;;11.63;2.70;;;8.30;99.90;;;5.83;100.00;98830.69;4972693;28;20495;-87
2022/04/08 03:24:03;;;;;;;15.48;2.78;;;8.30;99.90;;;5.79;100.00;98832.94;4992151;28;20046;-88
2022/04/08 03:26:32;;;;;;;15.88;3.33;;;8.30;99.90;;;5.85;100.00;98829.44;4983431;28;20097;-88
2022/04/08 03:28:59;;;;;;;14.27;3.25;;;8.30;99.90;;;5.82;100.00;98829.00;4972510;28;20051;-87
2022/04/08 03:31:26;;;;;;;12.73;2.53;;;8.30;99.90;;;5.80;100.00;98826.50;4971476;28;20082;-88
2022/04/08 03:33:53;;;;;;;13.25;3.42;;;8.30;99.90;;;5.89;100.00;98835.28;4971494;28;20053;-88
2022/04/08 03:36:20;;;;;;;15.02;3.20;;;8.20;99.90;;;5.93;100.00;98833.03;4971612;28;20078;-89
2022/04/08 03:38:48;;;;;;;16.77;2.65;;;8.20;99.90;;;5.84;100.00;98832.34;4972022;28;20145;-88
2022/04/08 03:41:15;;;;;;;10.52;2.70;;;8.20;99.90;;;5.79;100.00;98840.22;4971358;28;20054;-88
2022/04/08 03:43:44;;;;;;;9.88;2.67;;;8.20;99.90;;;5.79;100.00;98845.59;4972053;28;20046;-88
2022/04/08 03:46:13;;;;;;;12.02;2.42;;;8.20;99.90;;;5.70;100.00;98847.59;4971924;28;20057;-88
2022/04/08 03:48:42;;;;;;;13.55;2.50;;;8.20;99.90;;;5.54;100.00;98855.94;4971657;28;20487;-89
2022/04/08 03:51:10;;;;;;;21.98;3.00;;;8.20;99.90;;;5.45;100.00;98853.38;4970886;28;20074;-88
2022/04/08 03:53:37;;;;;;;14.65;2.38;;;8.10;99.90;;;5.45;100.00;98861.47;4972129;28;20046;-88
2022/04/08 03:56:06;;;;;;;11.23;2.30;;;8.10;99.90;;;5.39;100.00;98867.66;4971741;28;20130;-89
2022/04/08 03:58:34;;;;;;;14.80;2.58;;;8.00;99.90;;;5.44;100.00;98873.28;4972109;28;20125;-88
2022/04/08 04:01:02;;;;;;;12.80;2.20;;;7.90;99.90;;;5.43;100.00;98876.19;4971054;28;20039;-89
2022/04/08 04:03:29;;;;;;;21.23;3.00;;;7.90;99.90;;;5.38;100.00;98886.72;4971894;28;20673;-87
2022/04/08 04:05:57;;;;;;;9.48;2.53;;;7.90;99.90;;;5.44;100.00;98886.78;4971781;28;20049;-89
2022/04/08 04:08:24;;;;;;;12.77;2.28;;;7.90;99.90;;;5.37;100.00;98894.00;4971826;28;20085;-88
2022/04/08 04:10:51;;;;;;;10.68;2.45;;;7.90;99.90;;;5.27;100.00;98885.34;4971238;28;20074;-89
2022/04/08 04:13:18;;;;;;;9.07;2.60;;;7.90;99.90;;;5.27;100.00;98885.34;4971467;28;20047;-90
2022/04/08 04:15:45;;;;;;;10.68;2.45;;;7.90;99.90;;;5.27;100.00;98890.75;4971667;28;20043;-88
2022/04/08 04:18:14;;;;;;;14.82;2.30;;;7.90;99.90;;;5.28;100.00;98893.25;4970940;28;20038;-88
2022/04/08 04:20:41;;;;;;;13.00;2.40;;;7.90;99.90;;;5.35;100.00;98890.66;4971002;28;20562;-88
2022/04/08 04:23:08;;;;;;;14.93;2.90;;;7.80;99.90;;;5.25;100.00;98890.09;4971194;28;20121;-87
2022/04/08 04:25:35;;;;;;;11.30;2.30;;;7.80;99.90;;;5.15;100.00;98894.97;4971602;28;20669;-88
2022/04/08 04:28:04;;;;;;;12.85;2.13;;;7.80;99.90;;;5.03;100.00;98900.03;4970970;28;20400;-89
2022/04/08 04:30:33;;;;;;;13.98;2.90;;;7.70;99.90;;;4.97;100.00;98895.38;4970744;28;20053;-88
2022/04/08 04:33:00;;;;;;;12.15;2.60;;;7.80;99.90;;;4.94;100.00;98891.19;4970844;28;20117;-87
2022/04/08 04:35:29;;;;;;;8.43;2.15;;;7.70;99.90;;;4.92;100.00;98901.34;4972064;28;20054;-93
2022/04/08 04:37:56;;;;;;;11.85;2.75;;;7.70;99.90;;;4.95;100.00;98903.66;4971326;28;20575;-76
2022/04/08 04:40:25;;;;;;;12.88;2.70;;;7.70;99.90;;;4.98;100.00;98907.84;4970559;28;20043;-75
2022/04/08 04:42:52;;;;;;;12.95;2.90;;;7.70;99.90;;;5.07;100.00;98895.94;4971049;28;20074;-75
2022/04/08 04:45:20;;;;;;;12.43;3.17;;;7.70;99.90;;;5.02;100.00;98899.16;4971122;28;20121;-76
2022/04/08 04:47:47;;;;;;;13.80;3.30;;;7.70;99.90;;;5.09;100.00;98905.47;4969979;28;20034;-75
2022/04/08 04:50:14;;;;;;;14.90;3.33;;;7.70;99.90;;;5.17;100.00;98896.44;4972383;28;20066;-75
2022/04/08 04:52:43;;;;;;;16.17;3.20;;;7.70;99.90;;;5.19;100.00;98888.16;4979353;28;20113;-75
2022/04/08 04:55:10;;;;;;;18.00;3.25;;;7.70;99.90;;;5.24;100.00;98896.53;4971004;28;20082;-75
2022/04/08 04:57:39;;;;;;;15.32;2.92;;;7.70;99.90;;;5.18;100.00;98894.56;4970586;28;20521;-75
2022/04/08 05:00:09;;;;;;;11.50;2.20;;;7.70;99.90;;;5.08;100.00;98898.44;4969844;28;20583;-75
2022/04/08 05:02:37;;;;;;;11.88;2.67;;;7.70;99.90;;;5.01;100.00;98908.28;4966491;28;20047;-76
2022/04/08 05:05:06;;;;;;;10.13;2.63;;;7.60;99.90;;;4.97;100.00;98907.00;4970836;28;20047;-75
2022/04/08 05:07:33;;;;;;;15.10;2.75;;;7.60;99.90;;;4.85;100.00;98919.28;4970318;28;20039;-75
2022/04/08 05:10:04;;;;;;;9.05;2.20;;;7.60;99.90;;;4.82;100.00;98922.38;4969949;28;20762;-75
2022/04/08 05:12:31;;;;;;;11.48;2.67;;;7.60;99.90;;;4.76;100.00;98923.09;4970556;28;20051;-75
2022/04/08 05:14:58;;;;;;;8.02;2.10;;;7.60;99.90;;;4.77;100.00;98919.38;4970104;28;20097;-75
2022/04/08 05:17:26;;;;;;;8.77;2.08;;;7.50;99.90;;;4.76;100.00;98920.38;4970510;28;20039;-76
2022/04/08 05:19:53;;;;;;;12.50;2.63;;;7.50;99.90;;;4.78;100.00;98923.72;4975634;28;20096;-75
2022/04/08 05:22:20;;;;;;;12.30;2.75;;;7.50;99.90;;;4.70;100.00;98922.84;4980743;28;20057;-75
2022/04/08 05:24:47;;;;;;;11.25;2.90;;;7.50;99.90;;;4.77;100.00;98927.47;4968970;28;20057;-75
2022/04/08 05:27:17;;;;;;;13.82;3.78;;;7.50;99.90;;;4.73;100.00;98932.38;4970353;28;20046;-75
2022/04/08 05:29:44;;;;;;;10.98;4.05;;;7.50;99.90;;;4.66;100.00;98932.31;4970294;28;20035;-76
2022/04/08 05:32:11;;;;;;;12.20;4.05;;;7.50;99.90;;;4.73;100.00;98926.19;4971141;28;20082;-75
2022/04/08 05:34:39;;;;;;;16.55;4.95;;;7.50;99.90;;;4.73;100.00;98931.56;4969733;28;20074;-76
2022/04/08 05:37:07;;;;;;;12.98;4.63;;;7.50;99.90;;;4.68;100.00;98924.03;4968512;28;20043;-76
2022/04/08 05:39:34;;;;;;;17.50;5.05;;;7.50;99.90;;;4.67;100.00;98917.81;4970130;28;20043;-76
2022/04/08 05:42:01;;;;;;;11.52;4.90;;;7.50;99.90;;;4.82;100.00;98925.88;4970516;28;20051;-75
2022/04/08 05:44:30;;;;;;;15.27;4.88;;;7.50;99.90;;;4.89;100.00;98932.22;4969279;28;20053;-76
2022/04/08 05:46:57;;;;;;;14.00;5.13;;;7.60;99.90;;;4.94;100.00;98926.25;4973270;28;20053;-75
2022/04/08 05:49:24;;;;;;;20.88;5.40;;;7.60;99.90;;;4.96;100.00;98932.28;4970035;28;20513;-76
2022/04/08 05:51:52;;;;;;;18.95;5.82;;;7.60;99.90;;;5.05;100.00;98923.06;4969535;28;20471;-76
2022/04/08 05:54:19;;;;;;;17.38;5.78;;;7.60;99.90;;;5.13;100.00;98927.53;4969686;28;20053;-76
2022/04/08 05:56:46;;;;;;;19.38;5.55;;;7.70;99.90;;;5.18;100.00;98937.72;4969589;28;20125;-75
2022/04/08 05:59:13;;;;;;;12.20;5.15;;;7.70;99.90;;;5.28;100.00;98924.78;4969073;28;20039;-76
2022/04/08 06:01:42;;;;;;;16.20;5.60;;;7.80;99.90;;;5.39;100.00;98926.19;4966094;28;20137;-76
2022/04/08 06:04:10;;;;;;;23.75;5.80;;;7.80;99.90;;;5.41;100.00;98926.81;4970169;28;20038;-76
2022/04/08 06:06:38;;;;;;;18.42;5.50;;;7.80;99.90;;;5.54;100.00;98920.72;4984962;28;20077;-76
2022/04/08 06:09:06;;;;;;;21.40;5.10;;;7.90;99.90;;;5.54;100.00;98913.47;4985728;28;20051;-76
2022/04/08 06:11:34;;;;;;;13.15;4.70;;;7.90;99.90;;;5.58;100.00;98924.69;4967621;28;20050;-76
2022/04/08 06:14:01;;;;;;;17.60;4.60;;;8.00;99.90;;;5.67;100.00;98912.75;4969804;28;20113;-76
2022/04/08 06:16:29;;;;;;;15.85;5.03;;;8.10;99.90;;;5.80;100.00;98906.66;4969457;28;20038;-76
2022/04/08 06:18:57;;;;;;;16.10;4.97;;;8.10;99.90;;;5.82;100.00;98913.50;4980901;28;20098;-76
2022/04/08 06:21:25;;;;;;;15.60;4.63;;;8.20;99.90;;;5.92;100.00;98904.25;4968584;28;20121;-76
2022/04/08 06:23:52;;;;;;;12.30;4.97;;;8.10;99.90;;;5.97;100.00;98915.34;4969448;28;20516;-76
2022/04/08 06:26:20;;;;;;;15.23;5.40;;;8.20;99.90;;;6.01;100.00;98903.13;4970287;28;20043;-76
2022/04/08 06:28:47;;;;;;;14.38;4.70;;;8.30;99.90;;;6.00;100.00;98906.88;4972112;28;20054;-76
2022/04/08 06:31:14;;;;;;;16.10;5.30;;;8.30;99.90;;;6.13;100.00;98906.13;4972111;28;20105;-76
2022/04/08 06:33:42;;;;;;;12.73;5.28;;;8.40;99.90;;;6.20;100.00;98901.63;4975033;28;20142;-76
2022/04/08 06:36:11;;;;;;;16.88;6.00;;;8.40;99.90;;;6.31;100.00;98908.34;4971691;28;20141;-76
2022/04/08 06:38:38;;;;;;;13.85;6.20;;;8.40;99.90;;;6.37;100.00;98907.56;4972756;28;20071;-76
2022/04/08 06:41:06;;;;;;;18.10;7.13;;;8.50;99.90;;;6.36;100.00;98904.03;4974661;28;20172;-76
2022/04/08 06:43:33;;;;;;;18.33;6.90;;;8.50;99.90;;;6.46;100.00;98903.69;4976335;28;20113;-76
2022/04/08 06:46:02;;;;;;;14.48;6.80;;;8.60;99.90;;;6.50;100.00;98902.25;4973530;28;20101;-76
2022/04/08 06:48:29;;;;;;;20.30;7.32;;;8.60;99.90;;;6.67;100.00;98902.75;4974378;28;20054;-76
2022/04/08 06:50:58;;;;;;;20.20;7.72;;;8.80;99.90;;;6.72;100.00;98899.44;4972104;28;20495;-76
2022/04/08 06:53:27;;;;;;;15.25;7.68;;;8.80;99.90;;;6.76;100.00;98903.41;4972628;28;20051;-75
2022/04/08 06:55:54;;;;;;;14.43;8.05;;;8.80;99.90;;;6.84;100.00;98897.88;4972240;28;20043;-75
2022/04/08 06:58:24;;;;;;;19.17;7.90;;;8.90;99.90;;;6.95;100.00;98907.25;4978487;28;20051;-76
2022/04/08 07:00:51;;;;;;;15.43;8.48;;;8.90;99.90;;;7.07;100.00;98902.97;4968931;28;20070;-75
2022/04/08 07:03:19;;;;;;;17.80;9.30;;;9.00;99.90;;;7.12;100.00;98905.91;4970268;28;20046;-76
2022/04/08 07:05:46;;;;;;;19.33;9.40;;;9.10;99.90;;;7.14;100.00;98894.84;4973796;28;20113;-76
2022/04/08 07:08:13;;;;;;;21.48;9.45;;;9.00;99.90;;;7.23;100.00;98901.75;4972735;28;20101;-76
2022/04/08 07:10:42;;;;;;;18.40;9.27;;;9.10;99.90;;;7.28;100.00;98898.47;4972086;28;20042;-75
2022/04/08 07:13:10;;;;;;;16.92;8.85;;;9.20;99.90;;;7.28;100.00;98898.47;4970920;28;20038;-76
2022/04/08 07:15:37;;;;;;;16.58;9.25;;;9.20;99.90;;;7.27;100.00;98892.19;4973049;28;20046;-75
2022/04/08 07:18:05;;;;;;;26.58;10.02;;;9.30;99.90;;;7.29;100.00;98892.00;4972422;28;20050;-76
2022/04/08 07:20:32;;;;;;;23.48;8.90;;;9.30;99.90;;;7.33;100.00;98880.59;4972425;28;20047;-76
2022/04/08 07:23:01;;;;;;;19.15;10.48;;;9.30;99.90;;;7.41;98.72;98891.22;4972479;28;20226;-75
2022/04/08 07:25:30;;;;;;;26.85;10.52;;;9.30;99.90;;;7.41;98.92;98893.91;4972448;28;20061;-76
2022/04/08 07:27:59;;;;;;;21.80;9.90;;;9.40;99.90;;;7.42;98.96;98897.44;4972145;28;20543;-76
2022/04/08 07:30:27;;;;;;;19.42;10.63;;;9.40;99.90;;;7.54;98.61;98892.25;4971903;28;20062;-75
2022/04/08 07:32:55;;;;;;;20.88;10.18;;;9.50;99.90;;;7.53;97.75;98896.84;4972864;28;20046;-76
2022/04/08 07:35:25;;;;;;;17.63;9.85;;;9.50;99.90;;;7.67;98.01;98897.69;4993456;23;20078;-88
2022/04/08 07:37:53;;;;;;;15.95;9.75;;;9.60;99.90;;;7.75;98.40;98894.81;4984066;28;20060;-87
2022/04/08 07:40:21;;;;;;;16.75;10.23;;;9.60;99.90;;;7.73;98.00;98894.19;4990818;28;20042;-88
2022/04/08 07:42:48;;;;;;;18.25;10.15;;;9.60;99.90;;;7.86;96.20;98896.06;4991156;28;20046;-87
2022/04/08 07:45:18;;;;;;;18.73;10.85;;;9.60;99.90;;;7.91;96.96;98911.72;4992023;28;20054;-87
2022/04/08 07:47:45;;;;;;;14.90;10.68;;;9.60;99.90;;;7.98;95.28;98899.00;4990071;28;20039;-88
2022/04/08 07:50:14;;;;;;;20.13;10.63;;;9.70;99.90;;;8.00;93.44;98891.50;4990263;28;20503;-89
2022/04/08 07:52:43;;;;;;;18.33;11.20;;;9.70;99.90;;;7.96;92.08;98896.50;4991452;28;20121;-88
2022/04/08 07:55:12;;;;;;;18.40;10.90;;;9.90;99.90;;;8.07;93.25;98891.50;4990935;28;20043;-88
2022/04/08 07:57:46;;;;;;;15.68;10.18;;;9.80;99.90;;;8.07;92.14;98889.63;4988769;28;20050;-88
2022/04/08 08:00:19;;;;;;;16.42;9.75;;;9.90;99.50;;;8.13;91.36;98888.81;4986515;28;20074;-88
2022/04/08 08:02:47;;;;;;;17.35;9.88;;;9.90;98.80;;;8.19;90.91;98887.13;4991562;28;20412;-87
2022/04/08 08:05:15;;;;;;;18.25;10.55;;;9.90;99.10;;;8.16;91.65;98876.69;4991107;28;20048;-88
2022/04/08 08:07:52;;;;;;;18.35;10.45;;;10.00;99.30;;;8.14;91.40;98887.75;4990510;28;20210;-88
2022/04/08 08:10:22;;;;;;;17.83;9.52;;;9.90;99.10;;;8.17;91.00;98881.09;4990324;28;20094;-87
2022/04/08 08:12:54;;;;;;;19.65;10.48;;;10.00;98.50;;;8.14;90.82;98882.31;4990883;28;20495;-87
2022/04/08 08:15:25;;;;;;;17.52;9.82;;;10.00;99.10;;;8.10;91.26;98880.25;4990670;28;20084;-87
2022/04/08 08:17:53;;;;;;;15.32;10.20;;;10.00;99.10;;;8.15;90.95;98881.28;5000263;28;20533;-87
2022/04/08 08:20:22;;;;;;;14.43;10.02;;;10.00;98.70;;;8.13;90.19;98886.09;4989211;28;20464;-87
2022/04/08 08:22:50;;;;;;;16.83;10.10;;;10.00;98.10;;;8.08;90.46;98882.34;4991680;28;20172;-88
2022/04/08 08:25:19;;;;;;;16.63;9.82;;;10.00;98.30;;;8.10;90.05;98880.25;4991469;28;20069;-88
2022/04/08 08:27:49;;;;;;;16.75;9.32;;;10.00;98.40;;;8.11;90.82;98877.34;4981702;28;20050;-88
2022/04/08 08:30:18;;;;;;;13.60;8.50;;;10.10;99.10;;;8.15;90.19;98873.16;4986694;28;20035;-88
2022/04/08 08:32:50;;;;;;;14.88;9.32;;;10.00;97.80;;;8.11;89.03;98871.91;4989380;28;20122;-88
2022/04/08 08:35:19;;;;;;;16.67;9.52;;;10.00;97.80;;;8.00;89.72;98876.09;4990385;28;20598;-88
2022/04/08 08:37:48;;;;;;;16.63;8.93;;;10.00;97.70;;;8.07;89.15;98876.06;4991247;28;20128;-87
2022/04/08 08:40:17;;;;;;;13.50;7.97;;;10.00;97.50;;;8.06;89.23;98873.59;4989930;28;20070;-87
2022/04/08 08:42:44;;;;;;;14.25;8.23;;;10.10;97.60;;;8.03;87.66;98869.41;4990674;28;20042;-87
2022/04/08 08:45:15;;;;;;;18.77;9.30;;;10.00;97.10;;;8.06;88.69;98876.31;4990149;28;20070;-87
2022/04/08 08:47:48;;;;;;;17.80;8.67;;;10.10;97.00;;;8.13;89.19;98880.66;4989694;28;20393;-88
2022/04/08 08:50:18;;;;;;;15.20;8.07;;;10.10;97.40;;;8.05;88.83;98878.16;4988799;28;20070;-87
2022/04/08 08:52:50;;;;;;;11.98;7.25;;;10.10;96.90;;;8.12;88.66;98879.00;4987282;28;20046;-87
2022/04/08 08:55:17;;;;;;;16.27;7.95;;;10.10;97.90;;;8.15;89.73;98867.75;4990352;28;20168;-88
2022/04/08 08:57:45;;;;;;;13.13;6.38;;;10.10;97.90;;;8.18;88.37;98872.72;4990420;28;20533;-87
2022/04/08 09:00:16;;;;;;;11.93;7.28;;;10.10;96.90;;;8.22;86.33;98871.28;4989331;28;20130;-88
2022/04/08 09:02:44;;;;;;;14.68;7.40;;;10.10;96.90;;;8.15;87.14;98866.91;4990096;28;20120;-88
2022/04/08 09:05:16;;;;;;;15.18;6.40;;;10.10;97.00;;;8.17;86.05;98864.84;4990494;28;20042;-87
2022/04/08 09:07:43;;;;;;;13.60;6.30;;;10.10;94.80;;;8.22;86.84;98856.88;4990542;28;20042;-88
2022/04/08 09:10:11;;;;;;;14.95;7.00;;;10.00;96.60;;;8.23;85.74;98862.09;4989773;28;20042;-89
2022/04/08 09:12:38;;;;;;;11.90;5.85;;;10.00;95.30;;;8.27;85.42;98840.00;4988995;28;20050;-87
2022/04/08 09:15:09;;;;;;;11.13;6.45;;;10.00;94.60;;;8.27;86.27;98834.59;4990206;28;20458;-88
2022/04/08 09:17:36;;;;;;;16.33;6.53;;;9.90;96.40;;;8.18;85.43;98829.38;4990284;28;20526;-88
2022/04/08 09:20:05;;;;;;;9.00;5.82;;;10.00;95.80;;;8.19;85.19;98830.22;4988239;28;20050;-87
2022/04/08 09:22:36;;;;;;;12.25;5.20;;;10.00;95.70;;;8.13;86.12;98815.66;4988906;28;20061;-88
2022/04/08 09:25:11;;;;;;;11.40;4.57;;;10.00;96.20;;;8.16;85.85;98808.97;4988321;28;20175;-88
2022/04/08 09:27:39;;;;;;;11.90;5.30;;;10.10;95.90;;;8.23;85.30;98805.19;4988413;28;20165;-88
2022/04/08 09:30:08;;;;;;;12.88;5.45;;;10.10;95.40;;;8.31;85.60;98800.59;4988548;28;20046;-88
2022/04/08 09:32:36;;;;;;;12.10;5.28;;;10.10;95.60;;;8.39;84.84;98803.88;4996331;28;20549;-88
2022/04/08 09:35:05;;;;;;;10.43;4.93;;;10.20;95.70;;;8.45;82.90;98799.53;4988293;28;20046;-88
2022/04/08 09:37:34;;;;;;;9.88;5.13;;;10.30;94.70;;;8.48;82.84;98788.28;4989994;28;20034;-88
2022/04/08 09:40:05;;;;;;;10.10;5.38;;;10.30;94.10;;;8.53;84.16;98779.47;4988624;28;20065;-88
2022/04/08 09:42:43;;;;;;;8.20;4.28;;;10.30;94.30;;;8.63;82.37;98777.16;4978675;28;20035;-89
2022/04/08 09:45:11;;;;;;;8.93;3.97;;;10.40;92.90;;;8.60;79.93;98775.72;4989129;28;20560;-88
2022/04/08 09:47:39;;;;;;;9.35;3.70;;;10.40;93.00;;;8.56;78.98;98774.47;4984131;28;20142;-89
2022/04/08 09:50:09;;;;;;;12.90;4.20;;;10.40;92.40;;;8.64;80.92;98772.56;4980992;28;20089;-88
2022/04/08 09:52:40;;;;;;;11.23;4.03;;;10.40;92.00;;;8.65;80.85;98775.06;4987997;28;20042;-88
2022/04/08 09:55:09;;;;;;;10.82;4.30;;;10.40;92.70;;;8.64;79.66;98769.84;4979871;28;20038;-86
2022/04/08 09:57:39;;;;;;;8.45;3.90;;;10.40;93.00;;;8.57;78.63;98773.44;4988613;28;20118;-86
2022/04/08 10:00:09;;;;;;;11.60;4.13;;;10.40;91.30;;;8.61;77.97;98771.13;4986444;28;20705;-86
2022/04/08 10:02:42;;;;;;;9.00;3.90;;;10.40;90.90;;;8.51;77.27;98768.88;4992573;28;20415;-87
2022/04/08 10:05:11;;;;;;;9.63;4.18;;;10.50;90.10;;;8.50;77.69;98759.06;4984319;28;20066;-86
2022/04/08 10:07:42;;;;;;;10.93;3.90;;;10.40;91.10;;;8.53;79.09;98764.06;4988024;28;20034;-87
2022/04/08 10:10:26;;;;;;;16.85;4.40;;;10.50;91.00;;;8.55;77.90;98763.84;4988227;28;20048;-84
2022/04/08 10:13:33;;;;;;;8.98;4.13;;;10.50;90.00;;;8.55;76.58;98759.25;4995587;28;20124;-92
2022/04/08 10:16:09;;;;;;;11.50;4.07;;;10.50;89.40;;;8.66;77.83;98754.19;5007792;28;20113;-91
2022/04/08 10:18:38;;;;;;;10.82;4.10;;;10.50;90.70;;;8.61;76.52;98763.81;4989503;28;20134;-90
2022/04/08 10:21:06;;;;;;;10.65;3.85;;;10.50;89.70;;;8.59;74.24;98765.91;4990410;28;20133;-89
2022/04/08 10:23:41;;;;;;;9.25;3.70;;;10.50;88.50;;;8.72;75.49;98765.03;5008121;28;20148;-89
2022/04/08 10:26:19;;;;;;;8.10;3.72;;;10.50;89.40;;;8.78;76.60;98760.63;5006563;28;20042;-88
2022/04/08 10:28:46;;;;;;;8.18;3.20;;;10.50;89.50;;;8.78;75.10;98758.72;4990667;28;20491;-89